createdAt,value
2022-09-23T00:00:26.486Z,80.26
2022-09-23T00:01:28.735Z,80.26
2022-09-23T00:02:31.683Z,80.52
2022-09-23T00:03:35.071Z,80.75
2022-09-23T00:04:37.237Z,80.64
2022-09-23T00:05:39.951Z,80.33
2022-09-23T00:06:44.029Z,80.40
2022-09-23T00:07:46.487Z,80.35
2022-09-23T00:14:19.956Z,80.08
2022-09-23T00:15:22.492Z,79.81
2022-09-23T00:16:35.553Z,80.30
2022-09-23T00:17:38.214Z,80.64
2022-09-23T00:18:43.847Z,80.57
2022-09-23T00:19:46.265Z,80.60
2022-09-23T00:20:52.843Z,80.58
2022-09-23T00:21:56.739Z,80.62
2022-09-23T00:22:59.159Z,80.34
2022-09-23T00:24:02.498Z,80.25
2022-09-23T00:25:09.321Z,80.31
2022-09-23T00:26:14.199Z,80.72
2022-09-23T00:27:16.605Z,80.77
2022-09-23T00:28:19.002Z,80.69
2022-09-23T00:29:21.339Z,80.48
2022-09-23T00:30:25.698Z,80.49
2022-09-23T00:31:31.700Z,80.43
2022-09-23T00:32:34.661Z,80.39
2022-09-23T00:33:36.905Z,80.22
2022-09-23T00:34:41.539Z,79.92
2022-09-23T00:35:44.838Z,79.87
2022-09-23T00:36:48.845Z,79.85
2022-09-23T00:37:53.766Z,79.71
2022-09-23T00:39:00.149Z,79.44
2022-09-23T00:40:03.236Z,79.43
2022-09-23T00:41:06.370Z,79.41
2022-09-23T00:42:16.310Z,79.21
2022-09-23T00:43:18.689Z,78.91
2022-09-23T00:44:55.167Z,78.96
2022-09-23T00:45:57.396Z,78.60
2022-09-23T00:46:59.663Z,79.35
2022-09-23T00:48:03.692Z,79.78
2022-09-23T00:49:12.467Z,80.44
2022-09-23T00:50:22.098Z,81.12
2022-09-23T00:51:37.102Z,81.04
2022-09-23T00:52:39.663Z,80.74
2022-09-23T00:53:42.468Z,80.45
2022-09-23T00:54:47.142Z,80.42
2022-09-23T00:55:54.613Z,80.38
2022-09-23T00:56:59.773Z,80.48
2022-09-23T00:58:05.912Z,80.11
2022-09-23T00:59:13.801Z,80.04
2022-09-23T01:00:18.944Z,79.98
2022-09-23T01:01:21.494Z,80.21
2022-09-23T01:02:27.101Z,80.22
2022-09-23T01:03:30.197Z,80.15
2022-09-23T01:04:36.402Z,80.22
2022-09-23T01:05:39.934Z,80.10
2022-09-23T01:06:42.253Z,79.89
2022-09-23T01:07:48.224Z,79.85
2022-09-23T01:08:50.918Z,79.55
2022-09-23T01:09:53.500Z,79.29
2022-09-23T01:11:17.536Z,79.38
2022-09-23T01:12:23.067Z,79.73
2022-09-23T01:13:40.692Z,79.76
2022-09-23T01:14:57.020Z,80.05
2022-09-23T01:16:20.653Z,80.21
2022-09-23T01:17:53.783Z,80.06
2022-09-23T01:19:27.669Z,79.82
2022-09-23T01:20:54.216Z,80.04
2022-09-23T01:22:26.997Z,80.40
2022-09-23T01:24:18.684Z,80.59
2022-09-23T01:25:55.383Z,80.73
2022-09-23T01:27:00.500Z,80.73
2022-09-23T01:28:34.823Z,80.45
2022-09-23T01:30:04.744Z,80.49
2022-09-23T01:31:25.521Z,80.59
2022-09-23T01:32:49.135Z,80.75
2022-09-23T01:34:01.580Z,80.82
2022-09-23T01:35:48.173Z,80.77
2022-09-23T01:37:11.567Z,80.85
2022-09-23T01:38:27.257Z,81.00
2022-09-23T01:39:43.784Z,81.20
2022-09-23T01:41:00.774Z,80.82
2022-09-23T01:42:24.318Z,80.66
2022-09-23T01:43:56.849Z,80.36
2022-09-23T01:45:10.905Z,80.49
2022-09-23T01:46:40.856Z,80.96
2022-09-23T01:48:16.443Z,81.31
2022-09-23T01:49:26.518Z,81.57
2022-09-23T01:50:54.756Z,81.94
2022-09-23T01:52:16.936Z,82.17
2022-09-23T01:53:28.862Z,82.45
2022-09-23T01:54:40.069Z,82.81
2022-09-23T01:55:50.712Z,82.50
2022-09-23T01:57:23.610Z,82.20
2022-09-23T01:58:42.122Z,82.13
2022-09-23T01:59:52.015Z,82.02
2022-09-23T02:01:01.034Z,82.22
2022-09-23T02:02:06.699Z,82.03
2022-09-23T02:03:18.075Z,82.10
2022-09-23T02:04:39.573Z,82.21
2022-09-23T02:05:52.825Z,82.20
2022-09-23T02:07:00.046Z,82.27
2022-09-23T02:08:10.549Z,82.38
2022-09-23T02:09:19.086Z,82.44
2022-09-23T02:10:29.163Z,82.25
2022-09-23T02:11:36.398Z,82.17
2022-09-23T02:12:42.068Z,82.23
2022-09-23T02:13:54.042Z,82.17
2022-09-23T02:15:11.912Z,81.95
2022-09-23T02:16:24.704Z,82.11
2022-09-23T02:17:49.510Z,82.16
2022-09-23T02:19:04.442Z,81.93
2022-09-23T02:20:07.725Z,82.06
2022-09-23T02:21:10.079Z,81.96
2022-09-23T02:22:18.720Z,81.75
2022-09-23T02:23:36.547Z,81.83
2022-09-23T02:24:39.876Z,81.74
2022-09-23T02:26:09.913Z,81.97
2022-09-23T02:27:18.482Z,82.01
2022-09-23T02:28:34.451Z,82.20
2022-09-23T02:30:27.300Z,82.94
2022-09-23T02:31:59.857Z,82.72
2022-09-23T02:33:07.126Z,82.40
2022-09-23T02:34:25.657Z,82.74
2022-09-23T02:35:40.850Z,82.68
2022-09-23T02:37:10.258Z,82.30
2022-09-23T02:38:21.365Z,82.10
2022-09-23T02:39:31.412Z,82.56
2022-09-23T02:40:59.332Z,82.66
2022-09-23T02:42:12.819Z,82.36
2022-09-23T02:43:50.347Z,82.04
2022-09-23T02:44:52.545Z,82.09
2022-09-23T02:45:56.132Z,82.55
2022-09-23T02:46:58.631Z,83.03
2022-09-23T02:48:21.892Z,82.96
2022-09-23T02:49:27.841Z,83.20
2022-09-23T02:50:31.232Z,83.58
2022-09-23T02:51:37.883Z,83.74
2022-09-23T02:52:40.285Z,83.76
2022-09-23T02:53:43.568Z,83.72
2022-09-23T02:54:45.721Z,83.82
2022-09-23T02:55:48.223Z,83.73
2022-09-23T02:56:50.384Z,83.52
2022-09-23T02:57:53.384Z,83.30
2022-09-23T02:58:55.866Z,83.07
2022-09-23T02:59:58.498Z,82.71
2022-09-23T03:01:44.408Z,82.37
2022-09-23T03:03:15.729Z,82.00
2022-09-23T03:04:23.820Z,82.06
2022-09-23T03:05:32.326Z,81.85
2022-09-23T03:06:54.816Z,82.13
2022-09-23T03:08:42.287Z,82.27
2022-09-23T03:09:52.919Z,82.57
2022-09-23T03:11:08.702Z,82.60
2022-09-23T03:12:25.503Z,82.67
2022-09-23T03:13:46.937Z,83.05
2022-09-23T03:15:05.214Z,82.89
2022-09-23T03:16:27.836Z,82.65
2022-09-23T03:17:39.845Z,82.33
2022-09-23T03:18:54.111Z,82.57
2022-09-23T03:20:07.052Z,82.32
2022-09-23T03:21:18.072Z,82.36
2022-09-23T03:22:36.165Z,82.47
2022-09-23T03:23:40.983Z,82.63
2022-09-23T03:24:45.744Z,83.04
2022-09-23T03:25:50.363Z,82.97
2022-09-23T03:26:54.300Z,83.04
2022-09-23T03:27:59.466Z,82.65
2022-09-23T03:29:09.315Z,82.65
2022-09-23T03:30:13.734Z,82.36
2022-09-23T03:31:17.491Z,82.38
2022-09-23T03:32:23.640Z,82.50
2022-09-23T03:33:29.884Z,82.98
2022-09-23T03:34:36.068Z,83.05
2022-09-23T03:36:03.746Z,82.96
2022-09-23T03:37:51.722Z,83.16
2022-09-23T03:39:05.986Z,83.51
2022-09-23T03:40:29.327Z,83.59
2022-09-23T03:41:37.936Z,83.60
2022-09-23T03:42:41.272Z,83.83
2022-09-23T03:43:45.606Z,83.86
2022-09-23T03:44:49.352Z,83.95
2022-09-23T03:45:57.390Z,84.16
2022-09-23T03:47:02.296Z,84.24
2022-09-23T03:48:04.638Z,84.26
2022-09-23T03:49:39.598Z,84.41
2022-09-23T03:50:41.804Z,84.79
2022-09-23T03:51:44.887Z,84.85
2022-09-23T03:52:49.139Z,84.88
2022-09-23T03:53:51.301Z,84.83
2022-09-23T03:54:53.617Z,84.36
2022-09-23T03:55:55.747Z,83.78
2022-09-23T03:56:58.637Z,82.80
2022-09-23T03:58:02.418Z,82.56
2022-09-23T03:59:04.575Z,82.27
2022-09-23T04:00:07.570Z,82.99
2022-09-23T04:01:15.981Z,83.88
2022-09-23T04:02:20.262Z,84.05
2022-09-23T04:03:22.748Z,84.45
2022-09-23T04:04:28.710Z,84.72
2022-09-23T04:05:31.053Z,84.46
2022-09-23T04:06:33.207Z,83.86
2022-09-23T04:07:35.399Z,83.24
2022-09-23T04:08:37.896Z,82.71
2022-09-23T04:09:40.371Z,82.44
2022-09-23T04:10:42.528Z,82.09
2022-09-23T04:11:44.704Z,81.84
2022-09-23T04:12:46.911Z,81.72
2022-09-23T04:13:49.099Z,82.28
2022-09-23T04:14:51.237Z,82.74
2022-09-23T04:15:53.530Z,82.65
2022-09-23T04:16:56.112Z,82.14
2022-09-23T04:17:58.276Z,81.50
2022-09-23T04:19:00.557Z,81.20
2022-09-23T04:20:03.390Z,82.02
2022-09-23T04:21:05.799Z,82.11
2022-09-23T04:22:09.028Z,82.41
2022-09-23T04:23:11.223Z,82.82
2022-09-23T04:24:16.064Z,83.55
2022-09-23T04:25:18.273Z,84.19
2022-09-23T04:26:20.561Z,83.91
2022-09-23T04:27:22.888Z,83.33
2022-09-23T04:28:25.095Z,83.01
2022-09-23T04:29:27.365Z,83.25
2022-09-23T04:30:29.709Z,83.18
2022-09-23T04:31:33.210Z,83.66
2022-09-23T04:32:35.624Z,83.45
2022-09-23T04:33:37.997Z,83.36
2022-09-23T04:34:40.209Z,83.64
2022-09-23T04:35:45.413Z,83.68
2022-09-23T04:36:48.980Z,83.86
2022-09-23T04:37:51.364Z,83.90
2022-09-23T04:38:53.551Z,83.85
2022-09-23T04:39:56.213Z,83.94
2022-09-23T04:40:58.878Z,83.86
2022-09-23T04:42:01.336Z,83.52
2022-09-23T04:43:03.896Z,83.63
2022-09-23T04:44:06.160Z,83.49
2022-09-23T04:45:08.802Z,83.62
2022-09-23T04:46:13.311Z,83.57
2022-09-23T04:47:16.019Z,83.49
2022-09-23T04:48:18.331Z,83.19
2022-09-23T04:49:20.634Z,83.98
2022-09-23T04:50:22.904Z,84.25
2022-09-23T04:51:26.942Z,84.23
2022-09-23T04:52:31.303Z,84.23
2022-09-23T04:53:35.797Z,84.21
2022-09-23T04:54:37.967Z,84.29
2022-09-23T04:55:42.030Z,84.38
2022-09-23T04:56:44.264Z,84.41
2022-09-23T04:57:46.812Z,84.34
2022-09-23T04:58:49.968Z,84.28
2022-09-23T04:59:53.071Z,84.34
2022-09-23T05:00:55.941Z,84.44
2022-09-23T05:01:58.172Z,84.32
2022-09-23T05:03:00.725Z,84.33
2022-09-23T05:04:06.181Z,84.21
2022-09-23T05:05:08.542Z,84.52
2022-09-23T05:06:15.220Z,84.52
2022-09-23T05:07:18.397Z,84.73
2022-09-23T05:08:22.520Z,84.90
2022-09-23T05:09:24.676Z,84.63
2022-09-23T05:10:26.840Z,84.62
2022-09-23T05:11:30.629Z,84.62
2022-09-23T05:12:32.965Z,84.36
2022-09-23T05:13:35.609Z,84.46
2022-09-23T05:14:39.026Z,84.72
2022-09-23T05:15:41.212Z,84.93
2022-09-23T05:16:43.530Z,84.51
2022-09-23T05:17:45.908Z,84.40
2022-09-23T05:18:49.044Z,84.21
2022-09-23T05:19:51.412Z,84.19
2022-09-23T05:20:55.386Z,84.00
2022-09-23T05:21:57.545Z,83.98
2022-09-23T05:23:00.308Z,83.95
2022-09-23T05:24:02.921Z,83.89
2022-09-23T05:25:05.478Z,83.95
2022-09-23T05:26:10.719Z,84.08
2022-09-23T05:27:12.966Z,84.09
2022-09-23T05:28:20.075Z,83.88
2022-09-23T05:29:22.240Z,83.92
2022-09-23T05:30:24.712Z,84.08
2022-09-23T05:31:29.273Z,84.03
2022-09-23T05:32:31.877Z,83.98
2022-09-23T05:33:35.552Z,83.98
2022-09-23T05:34:37.787Z,83.85
2022-09-23T05:35:40.137Z,83.80
2022-09-23T05:36:42.306Z,83.78
2022-09-23T05:37:44.569Z,84.08
2022-09-23T05:38:47.606Z,84.08
2022-09-23T05:39:49.736Z,84.23
2022-09-23T05:41:13.790Z,83.87
2022-09-23T05:42:16.330Z,84.07
2022-09-23T05:43:18.518Z,84.11
2022-09-23T05:44:20.646Z,84.20
2022-09-23T05:45:26.828Z,84.12
2022-09-23T05:46:30.857Z,84.14
2022-09-23T05:47:33.194Z,84.07
2022-09-23T05:48:36.410Z,83.90
2022-09-23T05:49:58.733Z,83.97
2022-09-23T05:51:01.631Z,84.01
2022-09-23T05:52:03.760Z,84.00
2022-09-23T05:53:06.233Z,83.91
2022-09-23T05:54:08.497Z,83.78
2022-09-23T05:55:11.748Z,84.01
2022-09-23T05:56:16.163Z,83.91
2022-09-23T05:57:18.990Z,83.78
2022-09-23T05:58:21.805Z,83.41
2022-09-23T05:59:23.963Z,83.45
2022-09-23T06:00:26.228Z,83.19
2022-09-23T06:01:32.543Z,83.06
2022-09-23T06:02:34.776Z,82.80
2022-09-23T06:03:37.684Z,82.68
2022-09-23T06:04:39.873Z,82.47
2022-09-23T06:05:42.518Z,82.43
2022-09-23T06:06:44.691Z,82.83
2022-09-23T06:07:46.911Z,82.82
2022-09-23T06:08:49.209Z,83.04
2022-09-23T06:09:53.960Z,83.44
2022-09-23T06:10:56.315Z,83.34
2022-09-23T06:11:58.496Z,82.98
2022-09-23T06:13:00.730Z,82.85
2022-09-23T06:14:04.127Z,82.77
2022-09-23T06:15:07.181Z,82.68
2022-09-23T06:16:14.707Z,82.57
2022-09-23T06:17:17.038Z,82.54
2022-09-23T06:18:19.216Z,82.38
2022-09-23T06:19:21.586Z,82.51
2022-09-23T06:20:23.787Z,82.33
2022-09-23T06:21:26.272Z,82.22
2022-09-23T06:22:28.443Z,82.10
2022-09-23T06:23:31.294Z,81.81
2022-09-23T06:24:33.606Z,81.69
2022-09-23T06:25:38.391Z,81.45
2022-09-23T06:26:40.632Z,81.48
2022-09-23T06:27:42.795Z,81.59
2022-09-23T06:28:46.083Z,81.54
2022-09-23T06:29:49.460Z,81.77
2022-09-23T06:30:58.227Z,81.72
2022-09-23T06:32:00.751Z,81.47
2022-09-23T06:33:03.021Z,81.12
2022-09-23T06:34:11.463Z,81.16
2022-09-23T06:35:25.728Z,81.09
2022-09-23T06:36:40.490Z,81.21
2022-09-23T06:37:43.923Z,81.26
2022-09-23T06:38:49.209Z,81.36
2022-09-23T06:39:52.622Z,81.46
2022-09-23T06:40:58.204Z,80.94
2022-09-23T06:42:00.541Z,80.85
2022-09-23T06:43:02.807Z,80.49
2022-09-23T06:44:05.759Z,80.36
2022-09-23T06:45:11.794Z,80.17
2022-09-23T06:46:16.256Z,79.86
2022-09-23T06:47:18.597Z,79.65
2022-09-23T06:48:21.146Z,79.13
2022-09-23T06:49:23.344Z,78.81
2022-09-23T06:50:27.194Z,78.56
2022-09-23T06:51:29.630Z,78.68
2022-09-23T06:52:32.128Z,78.47
2022-09-23T06:53:34.461Z,77.92
2022-09-23T06:54:38.059Z,77.56
2022-09-23T06:55:41.300Z,77.72
2022-09-23T06:56:47.456Z,77.63
2022-09-23T06:57:49.848Z,77.10
2022-09-23T06:58:53.081Z,75.65
2022-09-23T06:59:55.256Z,73.70
2022-09-23T07:01:02.448Z,72.87
2022-09-23T07:02:04.787Z,71.01
2022-09-23T07:03:08.604Z,69.38
2022-09-23T07:04:11.188Z,67.57
2022-09-23T07:05:13.620Z,66.08
2022-09-23T07:06:17.120Z,64.89
2022-09-23T07:07:19.661Z,64.17
2022-09-23T07:08:23.709Z,63.18
2022-09-23T07:09:25.976Z,62.66
2022-09-23T07:10:29.196Z,62.25
2022-09-23T07:11:31.517Z,61.27
2022-09-23T07:12:34.189Z,60.82
2022-09-23T07:13:37.231Z,59.71
2022-09-23T07:14:39.918Z,59.39
2022-09-23T07:15:42.365Z,58.51
2022-09-23T07:16:44.542Z,58.33
2022-09-23T07:17:46.684Z,57.74
2022-09-23T07:18:48.885Z,57.10
2022-09-23T07:19:51.680Z,56.69
2022-09-23T07:20:54.629Z,56.01
2022-09-23T07:21:57.065Z,55.02
2022-09-23T07:22:59.365Z,54.36
2022-09-23T07:24:01.819Z,54.17
2022-09-23T07:25:06.031Z,54.20
2022-09-23T07:26:08.793Z,54.67
2022-09-23T07:27:11.209Z,55.25
2022-09-23T07:28:13.835Z,55.09
2022-09-23T07:29:15.977Z,54.32
2022-09-23T07:30:24.500Z,54.18
2022-09-23T07:31:38.659Z,53.09
2022-09-23T07:32:48.307Z,52.60
2022-09-23T07:33:56.685Z,52.09
2022-09-23T07:34:59.183Z,51.60
2022-09-23T07:36:09.494Z,51.41
2022-09-23T07:37:11.716Z,51.92
2022-09-23T07:38:13.888Z,52.81
2022-09-23T07:39:16.126Z,53.35
2022-09-23T07:40:18.321Z,53.44
2022-09-23T07:41:20.526Z,52.68
2022-09-23T07:42:22.687Z,52.52
2022-09-23T07:43:30.007Z,52.26
2022-09-23T07:44:33.121Z,52.22
2022-09-23T07:45:38.914Z,52.33
2022-09-23T07:46:41.289Z,52.31
2022-09-23T07:47:43.744Z,52.18
2022-09-23T07:48:46.901Z,51.62
2022-09-23T07:49:49.218Z,51.55
2022-09-23T07:50:51.528Z,51.86
2022-09-23T07:51:54.268Z,51.19
2022-09-23T07:52:56.608Z,50.62
2022-09-23T07:53:59.531Z,50.18
2022-09-23T07:55:01.717Z,49.92
2022-09-23T07:56:06.606Z,49.88
2022-09-23T07:57:08.837Z,49.71
2022-09-23T07:58:11.292Z,49.54
2022-09-23T07:59:18.468Z,49.27
2022-09-23T08:00:21.199Z,48.99
2022-09-23T08:01:23.356Z,48.44
2022-09-23T08:02:25.718Z,49.19
2022-09-23T08:03:28.474Z,48.84
2022-09-23T08:04:31.805Z,48.54
2022-09-23T08:05:34.268Z,47.69
2022-09-23T08:06:40.939Z,46.64
2022-09-23T08:07:43.105Z,46.32
2022-09-23T08:08:47.963Z,46.81
2022-09-23T08:09:52.176Z,46.52
2022-09-23T08:11:02.169Z,46.15
2022-09-23T08:12:04.920Z,46.36
2022-09-23T08:13:07.310Z,46.26
2022-09-23T08:14:11.437Z,46.20
2022-09-23T08:15:13.620Z,46.73
2022-09-23T08:16:16.171Z,47.14
2022-09-23T08:17:18.644Z,46.85
2022-09-23T08:18:20.815Z,47.04
2022-09-23T08:19:23.142Z,46.41
2022-09-23T08:20:47.068Z,46.66
2022-09-23T08:21:52.126Z,46.90
2022-09-23T08:22:54.850Z,46.95
2022-09-23T08:23:57.448Z,48.01
2022-09-23T08:24:59.578Z,47.43
2022-09-23T08:26:04.485Z,47.31
2022-09-23T08:27:06.642Z,46.66
2022-09-23T08:28:09.414Z,46.42
2022-09-23T08:29:18.239Z,45.63
2022-09-23T08:30:20.395Z,45.41
2022-09-23T08:31:23.158Z,45.48
2022-09-23T08:32:25.376Z,46.22
2022-09-23T08:33:27.672Z,47.13
2022-09-23T08:34:29.862Z,47.10
2022-09-23T08:35:32.040Z,47.67
2022-09-23T08:36:35.148Z,47.88
2022-09-23T08:37:37.367Z,47.23
2022-09-23T08:38:40.906Z,46.80
2022-09-23T08:39:45.804Z,47.57
2022-09-23T08:40:50.832Z,46.82
2022-09-23T08:41:57.527Z,46.46
2022-09-23T08:43:01.279Z,47.38
2022-09-23T08:44:16.936Z,47.57
2022-09-23T08:45:26.686Z,47.79
2022-09-23T08:46:36.088Z,47.67
2022-09-23T08:48:01.931Z,47.55
2022-09-23T08:49:06.604Z,47.06
2022-09-23T08:50:14.813Z,46.46
2022-09-23T08:51:29.546Z,46.06
2022-09-23T08:52:57.035Z,45.63
2022-09-23T08:54:00.004Z,45.11
2022-09-23T08:55:03.133Z,45.01
2022-09-23T08:56:20.117Z,45.28
2022-09-23T08:57:28.315Z,45.66
2022-09-23T08:58:43.888Z,45.66
2022-09-23T08:59:46.255Z,45.74
2022-09-23T09:01:46.765Z,45.77
2022-09-23T09:02:50.185Z,45.32
2022-09-23T09:03:56.170Z,45.17
2022-09-23T09:05:05.791Z,45.58
2022-09-23T09:06:17.297Z,47.08
2022-09-23T09:07:37.916Z,48.00
2022-09-23T09:08:41.383Z,47.28
2022-09-23T09:09:53.739Z,47.78
2022-09-23T09:10:58.444Z,46.53
2022-09-23T09:12:43.112Z,45.87
2022-09-23T09:13:57.480Z,45.60
2022-09-23T09:15:02.736Z,46.37
2022-09-23T09:16:58.964Z,45.90
2022-09-23T09:18:11.293Z,46.22
2022-09-23T09:19:35.463Z,44.92
2022-09-23T09:20:51.592Z,45.94
2022-09-23T09:21:54.943Z,47.15
2022-09-23T09:23:04.852Z,47.00
2022-09-23T09:24:17.633Z,46.81
2022-09-23T09:25:24.248Z,46.00
2022-09-23T09:26:29.449Z,46.46
2022-09-23T09:27:31.610Z,47.40
2022-09-23T09:29:06.518Z,48.04
2022-09-23T09:30:19.782Z,48.40
2022-09-23T09:31:28.248Z,49.30
2022-09-23T09:32:50.809Z,49.14
2022-09-23T09:34:08.777Z,48.50
2022-09-23T09:35:24.799Z,47.69
2022-09-23T09:36:46.955Z,47.53
2022-09-23T09:37:49.352Z,47.66
2022-09-23T09:38:53.468Z,48.19
2022-09-23T09:40:00.926Z,47.14
2022-09-23T09:41:19.726Z,46.62
2022-09-23T09:42:30.784Z,48.05
2022-09-23T09:43:35.668Z,47.52
2022-09-23T09:44:42.597Z,47.25
2022-09-23T09:46:15.270Z,47.10
2022-09-23T09:47:28.443Z,47.77
2022-09-23T09:48:39.701Z,46.61
2022-09-23T09:49:51.775Z,45.81
2022-09-23T09:50:55.979Z,46.10
2022-09-23T09:52:19.741Z,45.38
2022-09-23T09:53:27.515Z,45.40
2022-09-23T09:54:31.124Z,45.91
2022-09-23T09:55:33.393Z,46.21
2022-09-23T09:56:36.310Z,46.73
2022-09-23T09:57:48.569Z,46.91
2022-09-23T09:58:57.841Z,45.47
2022-09-23T10:00:18.994Z,44.69
2022-09-23T10:01:22.948Z,44.20
2022-09-23T10:02:29.690Z,43.53
2022-09-23T10:03:41.431Z,43.93
2022-09-23T10:04:46.905Z,43.96
2022-09-23T10:05:56.724Z,44.46
2022-09-23T10:07:16.069Z,44.68
2022-09-23T10:08:34.922Z,44.74
2022-09-23T10:09:38.943Z,44.99
2022-09-23T10:11:00.006Z,45.25
2022-09-23T10:12:19.143Z,44.67
2022-09-23T10:13:24.284Z,44.82
2022-09-23T10:14:26.786Z,44.24
2022-09-23T10:15:44.491Z,43.50
2022-09-23T10:17:05.480Z,42.86
2022-09-23T10:18:20.117Z,42.88
2022-09-23T10:19:30.141Z,41.03
2022-09-23T10:20:38.977Z,41.28
2022-09-23T10:21:42.341Z,41.29
2022-09-23T10:22:46.486Z,40.51
2022-09-23T10:23:55.185Z,40.70
2022-09-23T10:25:04.647Z,40.34
2022-09-23T10:26:12.172Z,40.90
2022-09-23T10:27:14.345Z,40.80
2022-09-23T10:28:38.294Z,38.97
2022-09-23T10:29:46.682Z,37.43
2022-09-23T10:31:14.986Z,37.27
2022-09-23T10:32:33.667Z,38.20
2022-09-23T10:33:41.995Z,39.06
2022-09-23T10:34:48.792Z,39.79
2022-09-23T10:35:57.222Z,39.74
2022-09-23T10:37:12.100Z,40.23
2022-09-23T10:38:14.643Z,40.75
2022-09-23T10:39:35.513Z,41.66
2022-09-23T10:40:59.555Z,39.48
2022-09-23T10:42:36.077Z,39.34
2022-09-23T10:44:19.837Z,39.38
2022-09-23T10:45:49.710Z,40.19
2022-09-23T10:47:26.977Z,41.20
2022-09-23T10:48:52.815Z,42.14
2022-09-23T10:50:11.877Z,41.97
2022-09-23T10:51:29.567Z,42.33
2022-09-23T10:52:40.869Z,42.71
2022-09-23T10:53:57.392Z,42.88
2022-09-23T10:55:18.064Z,42.82
2022-09-23T10:56:32.302Z,41.81
2022-09-23T10:58:00.063Z,42.75
2022-09-23T10:59:44.114Z,41.66
2022-09-23T11:01:02.066Z,38.21
2022-09-23T11:02:40.473Z,39.52
2022-09-23T11:04:01.546Z,37.14
2022-09-23T11:05:36.578Z,37.26
2022-09-23T11:07:14.337Z,38.03
2022-09-23T11:08:52.124Z,38.26
2022-09-23T11:09:54.233Z,38.13
2022-09-23T11:11:15.595Z,35.20
2022-09-23T11:12:44.597Z,35.00
2022-09-23T11:14:04.757Z,36.73
2022-09-23T11:15:23.194Z,37.38
2022-09-23T11:16:40.863Z,38.50
2022-09-23T11:18:22.953Z,39.11
2022-09-23T11:19:38.676Z,39.72
2022-09-23T11:20:58.174Z,40.25
2022-09-23T11:22:24.589Z,40.26
2022-09-23T11:23:45.575Z,40.74
2022-09-23T11:25:28.592Z,40.80
2022-09-23T11:26:53.606Z,41.27
2022-09-23T11:28:29.435Z,41.23
2022-09-23T11:29:57.028Z,40.77
2022-09-23T11:31:21.433Z,40.33
2022-09-23T11:32:27.599Z,39.94
2022-09-23T11:33:57.870Z,39.36
2022-09-23T11:35:15.123Z,40.30
2022-09-23T11:36:38.068Z,39.81
2022-09-23T11:37:47.945Z,39.78
2022-09-23T11:38:55.970Z,39.56
2022-09-23T11:40:13.767Z,39.65
2022-09-23T11:41:32.898Z,38.66
2022-09-23T11:43:07.365Z,38.75
2022-09-23T11:44:23.532Z,39.46
2022-09-23T11:45:31.377Z,39.63
2022-09-23T11:46:40.344Z,38.61
2022-09-23T11:47:56.027Z,38.90
2022-09-23T11:49:27.813Z,39.17
2022-09-23T11:50:36.621Z,39.65
2022-09-23T11:52:03.969Z,39.50
2022-09-23T11:53:20.346Z,39.68
2022-09-23T11:54:42.552Z,39.77
2022-09-23T11:55:57.716Z,39.76
2022-09-23T11:57:06.534Z,39.48
2022-09-23T11:58:26.699Z,38.33
2022-09-23T12:01:01.650Z,36.78
2022-09-23T12:02:20.826Z,36.28
2022-09-23T12:03:52.093Z,35.76
2022-09-23T12:05:03.211Z,35.86
2022-09-23T12:06:40.842Z,34.85
2022-09-23T12:08:05.479Z,35.39
2022-09-23T12:09:58.388Z,35.46
2022-09-23T12:11:30.726Z,35.26
2022-09-23T12:12:35.539Z,35.73
2022-09-23T12:13:37.900Z,36.09
2022-09-23T12:15:22.048Z,36.26
2022-09-23T12:16:53.778Z,36.54
2022-09-23T12:18:20.948Z,36.25
2022-09-23T12:19:54.838Z,36.78
2022-09-23T12:21:05.658Z,35.98
2022-09-23T12:22:19.718Z,36.22
2022-09-23T12:23:37.130Z,36.05
2022-09-23T12:24:48.581Z,36.12
2022-09-23T12:25:57.825Z,35.28
2022-09-23T12:27:06.088Z,35.55
2022-09-23T12:28:18.471Z,36.22
2022-09-23T12:29:20.914Z,36.05
2022-09-23T12:30:30.336Z,34.55
2022-09-23T12:31:41.127Z,34.52
2022-09-23T12:32:48.151Z,34.32
2022-09-23T12:33:55.171Z,35.02
2022-09-23T12:34:58.797Z,35.37
2022-09-23T12:36:07.072Z,35.19
2022-09-23T12:37:09.458Z,35.79
2022-09-23T12:38:17.996Z,35.74
2022-09-23T12:39:32.822Z,35.75
2022-09-23T12:40:44.754Z,35.59
2022-09-23T12:41:58.359Z,35.39
2022-09-23T12:43:02.374Z,36.17
2022-09-23T12:44:11.086Z,36.42
2022-09-23T12:45:39.411Z,36.51
2022-09-23T12:46:45.927Z,36.62
2022-09-23T12:47:48.155Z,36.44
2022-09-23T12:48:57.886Z,36.12
2022-09-23T12:50:01.245Z,36.54
2022-09-23T12:51:03.724Z,36.29
2022-09-23T12:52:11.591Z,35.90
2022-09-23T12:53:38.849Z,36.22
2022-09-23T12:54:45.937Z,36.35
2022-09-23T12:55:51.580Z,36.11
2022-09-23T12:56:53.888Z,36.24
2022-09-23T12:57:56.010Z,36.27
2022-09-23T12:59:02.379Z,36.43
2022-09-23T13:00:11.201Z,35.90
2022-09-23T13:01:24.854Z,35.29
2022-09-23T13:02:42.603Z,34.70
2022-09-23T13:04:06.219Z,35.47
2022-09-23T13:05:26.713Z,35.60
2022-09-23T13:06:39.908Z,35.09
2022-09-23T13:07:47.862Z,35.04
2022-09-23T13:08:50.077Z,35.09
2022-09-23T13:09:57.220Z,35.25
2022-09-23T13:11:05.353Z,35.50
2022-09-23T13:12:18.348Z,36.36
2022-09-23T13:13:42.797Z,36.41
2022-09-23T13:14:48.449Z,36.64
2022-09-23T13:15:53.609Z,35.68
2022-09-23T13:16:58.423Z,35.00
2022-09-23T13:18:19.430Z,35.12
2022-09-23T13:19:35.373Z,34.68
2022-09-23T13:20:40.719Z,35.17
2022-09-23T13:21:43.834Z,34.99
2022-09-23T13:22:48.635Z,34.62
2022-09-23T13:24:12.855Z,35.09
2022-09-23T13:25:40.822Z,33.93
2022-09-23T13:26:48.895Z,33.90
2022-09-23T13:27:54.522Z,33.71
2022-09-23T13:28:59.266Z,34.21
2022-09-23T13:30:16.664Z,34.09
2022-09-23T13:31:20.243Z,33.90
2022-09-23T13:32:30.742Z,33.97
2022-09-23T13:33:42.899Z,34.06
2022-09-23T13:35:01.653Z,33.63
2022-09-23T13:36:12.099Z,32.81
2022-09-23T13:37:23.251Z,33.73
2022-09-23T13:38:29.610Z,33.67
2022-09-23T13:39:31.755Z,34.06
2022-09-23T13:40:35.336Z,33.80
2022-09-23T13:41:37.527Z,33.97
2022-09-23T13:42:40.702Z,33.59
2022-09-23T13:43:48.801Z,33.87
2022-09-23T13:44:55.560Z,33.83
2022-09-23T13:45:58.812Z,34.91
2022-09-23T13:47:03.315Z,35.34
2022-09-23T13:48:10.568Z,35.46
2022-09-23T13:49:29.661Z,35.79
2022-09-23T13:50:35.287Z,35.71
2022-09-23T13:51:37.825Z,35.49
2022-09-23T13:52:39.992Z,35.85
2022-09-23T13:53:42.133Z,36.26
2022-09-23T13:54:50.646Z,36.07
2022-09-23T13:56:01.599Z,36.40
2022-09-23T13:57:04.707Z,36.23
2022-09-23T13:58:24.355Z,36.34
2022-09-23T13:59:36.301Z,36.16
2022-09-23T14:00:39.118Z,35.89
2022-09-23T14:01:41.392Z,35.89
2022-09-23T14:02:44.289Z,35.99
2022-09-23T14:03:46.647Z,35.59
2022-09-23T14:04:49.399Z,35.67
2022-09-23T14:05:56.590Z,35.46
2022-09-23T14:06:58.784Z,35.76
2022-09-23T14:08:02.489Z,35.87
2022-09-23T14:09:06.444Z,36.18
2022-09-23T14:10:19.235Z,36.06
2022-09-23T14:11:33.328Z,36.45
2022-09-23T14:12:39.593Z,36.10
2022-09-23T14:13:43.975Z,35.79
2022-09-23T14:14:46.627Z,35.75
2022-09-23T14:15:49.368Z,35.84
2022-09-23T14:16:52.736Z,35.43
2022-09-23T14:18:03.167Z,35.44
2022-09-23T14:19:06.513Z,35.34
2022-09-23T14:20:20.842Z,35.13
2022-09-23T14:21:28.374Z,35.36
2022-09-23T14:22:31.056Z,35.29
2022-09-23T14:23:33.716Z,35.36
2022-09-23T14:24:37.009Z,35.37
2022-09-23T14:25:40.832Z,35.28
2022-09-23T14:26:46.791Z,34.95
2022-09-23T14:27:48.972Z,34.94
2022-09-23T14:28:52.235Z,34.75
2022-09-23T14:29:55.417Z,34.58
2022-09-23T14:30:58.726Z,34.42
2022-09-23T14:32:26.856Z,34.46
2022-09-23T14:33:34.041Z,34.84
2022-09-23T14:34:45.024Z,34.71
2022-09-23T14:35:52.050Z,35.10
2022-09-23T14:37:12.682Z,34.82
2022-09-23T14:38:49.334Z,35.22
2022-09-23T14:39:55.750Z,34.30
2022-09-23T14:41:17.425Z,34.25
2022-09-23T14:42:20.560Z,34.66
2022-09-23T14:43:29.127Z,34.77
2022-09-23T14:44:33.273Z,34.53
2022-09-23T14:45:38.608Z,34.40
2022-09-23T14:46:50.852Z,33.65
2022-09-23T14:47:59.016Z,33.48
2022-09-23T14:49:06.255Z,33.90
2022-09-23T14:50:34.641Z,34.92
2022-09-23T14:51:45.760Z,34.68
2022-09-23T14:52:51.869Z,35.03
2022-09-23T14:53:54.106Z,34.68
2022-09-23T14:54:57.156Z,34.96
2022-09-23T14:56:08.153Z,35.31
2022-09-23T14:57:22.623Z,35.06
2022-09-23T14:58:30.827Z,34.57
2022-09-23T14:59:37.063Z,34.33
2022-09-23T15:00:39.464Z,34.07
2022-09-23T15:01:41.769Z,34.47
2022-09-23T15:02:57.044Z,35.24
2022-09-23T15:04:24.026Z,35.51